Time;durP1;ratioP1;P1;durP2;ratioP2;P2;SDS_P1;SDS_P2;PMS_P1;PMS_P2;Temp;Humidity;BMP_temperature;BMP_pressure;BME280_temperature;BME280_humidity;BME280_pressure;Samples;Min_cycle;Max_cycle;Signal;HPM_P1;HPM_P2
2022/02/02 00:04:46;;;;;;;17.60;9.63;;;;;;;7.13;52.65;94260.69;4998576;28;20214;-61
2022/02/02 00:09:53;;;;;;;19.15;10.82;;;;;;;7.01;52.67;94255.63;4990580;28;20665;-61
2022/02/02 00:13:00;;;;;;;17.23;10.10;;;;;;;8.09;50.11;94252.38;4991542;28;20213;-61
2022/02/02 00:23:21;;;;;;;20.00;11.80;;;;;;;7.63;51.53;94255.78;4990283;28;20202;-61
2022/02/02 00:25:57;;;;;;;18.95;11.48;;;;;;;7.83;50.77;94252.50;5008324;28;20264;-61
2022/02/02 00:28:29;;;;;;;18.65;11.52;;;;;;;7.53;51.33;94231.50;5010171;28;20216;-61
2022/02/02 00:31:00;;;;;;;18.98;11.98;;;;;;;8.28;50.19;94237.09;5010476;28;20637;-60
2022/02/02 00:33:35;;;;;;;19.08;12.63;;;;;;;7.83;50.70;94239.47;5025261;28;20209;-61
2022/02/02 00:36:08;;;;;;;23.15;13.10;;;;;;;8.32;50.03;94232.91;5010432;28;20201;-61
2022/02/02 00:38:35;;;;;;;20.98;12.70;;;;;;;8.59;49.45;94233.50;5010129;28;20227;-61
2022/02/02 00:41:02;;;;;;;21.27;13.70;;;;;;;8.53;49.14;94238.97;5010033;28;20225;-62
2022/02/02 00:43:29;;;;;;;19.30;12.68;;;;;;;8.21;49.60;94233.91;5010181;28;20205;-61
2022/02/02 00:46:16;;;;;;;21.75;13.00;;;;;;;8.64;48.23;94240.53;5010282;28;20197;-61
2022/02/02 00:48:48;;;;;;;21.20;13.20;;;;;;;8.10;50.43;94240.13;5009360;28;20248;-61
2022/02/02 00:51:20;;;;;;;20.35;12.73;;;;;;;7.70;50.87;94245.16;5010022;28;20224;-60
2022/02/02 00:53:46;;;;;;;20.90;14.35;;;;;;;7.72;50.75;94250.91;5009225;28;20205;-61
2022/02/02 00:56:14;;;;;;;22.90;13.35;;;;;;;7.84;50.86;94246.25;5010298;28;20204;-61
2022/02/02 00:58:41;;;;;;;24.30;14.15;;;;;;;8.02;49.90;94240.59;5008923;28;20328;-62
2022/02/02 01:01:08;;;;;;;20.80;12.63;;;;;;;7.99;50.05;94230.69;5009755;28;20688;-60
2022/02/02 01:03:35;;;;;;;23.55;13.43;;;;;;;7.72;50.93;94230.06;5009878;28;20213;-61
2022/02/02 01:06:03;;;;;;;22.08;12.82;;;;;;;8.02;49.94;94217.13;5009271;28;20248;-61
2022/02/02 01:19:32;;;;;;;18.25;11.73;;;;;;;8.13;49.96;94192.63;5009169;28;20226;-62
2022/02/02 01:22:19;;;;;;;18.10;11.60;;;;;;;7.98;49.58;94201.19;5009072;28;20737;-61
2022/02/02 01:27:51;;;;;;;19.42;11.73;;;;;;;7.80;49.63;94198.25;5008568;28;20229;-61
2022/02/02 01:30:19;;;;;;;21.33;11.82;;;;;;;8.02;49.37;94180.59;5008710;28;20216;-62
2022/02/02 01:32:46;;;;;;;17.98;11.35;;;;;;;7.57;50.83;94183.03;5009784;28;20260;-62
2022/02/02 01:35:15;;;;;;;18.92;11.57;;;;;;;7.62;50.34;94170.03;5009099;28;20198;-63
2022/02/02 01:37:44;;;;;;;16.45;10.93;;;;;;;7.98;49.42;94169.09;5009671;28;20240;-62
2022/02/02 01:40:22;;;;;;;19.45;11.55;;;;;;;7.21;50.91;94163.03;5008875;28;20575;-64
2022/02/02 01:42:56;;;;;;;19.08;11.90;;;;;;;8.02;50.17;94165.75;5009495;28;20684;-61
2022/02/02 01:45:30;;;;;;;20.58;11.73;;;;;;;7.89;50.18;94139.34;5024257;28;20220;-62
2022/02/02 01:53:31;;;;;;;19.80;12.23;;;;;;;7.53;50.41;94148.09;5009161;28;20202;-60
2022/02/02 01:55:59;;;;;;;19.25;11.77;;;;;;;7.48;50.28;94143.63;5009337;28;20225;-62
2022/02/02 02:01:10;;;;;;;21.27;13.18;;;;;;;6.89;51.86;94145.66;5008904;28;20251;-61
2022/02/02 02:03:38;;;;;;;20.23;12.20;;;;;;;6.99;51.90;94145.69;5009167;28;20589;-62
2022/02/02 02:06:05;;;;;;;24.48;13.30;;;;;;;7.69;50.27;94132.25;5008999;28;20688;-61
2022/02/02 02:08:35;;;;;;;21.75;13.45;;;;;;;7.38;51.33;94132.38;5012430;28;20700;-61
2022/02/02 02:11:06;;;;;;;21.95;13.55;;;;;;;8.02;49.91;94120.59;5013012;28;20201;-63
2022/02/02 02:16:08;;;;;;;25.45;14.10;;;;;;;7.69;49.90;94123.63;5013260;28;20181;-62
2022/02/02 02:18:36;;;;;;;22.67;14.68;;;;;;;8.40;48.79;94120.16;5012711;28;20732;-61
2022/02/02 02:21:12;;;;;;;24.38;14.80;;;;;;;7.77;49.40;94120.53;5013476;28;20206;-62
2022/02/02 02:23:39;;;;;;;25.17;15.32;;;;;;;8.12;49.08;94110.97;5012463;28;20201;-61
2022/02/02 02:26:07;;;;;;;23.05;14.35;;;;;;;7.89;49.92;94118.47;5013127;28;20217;-61
2022/02/02 02:31:07;;;;;;;25.85;14.60;;;;;;;8.07;49.14;94115.38;5012768;28;20677;-61
2022/02/02 02:58:09;;;;;;;28.45;16.27;;;;;;;8.04;48.91;94118.53;5012543;28;20590;-62
2022/02/02 03:30:48;;;;;;;30.95;17.98;;;;;;;8.24;47.95;94105.53;5011768;28;20673;-61
2022/02/02 04:05:43;;;;;;;34.55;19.15;;;;;;;7.04;49.73;94088.44;5011336;28;20206;-62
2022/02/02 04:08:26;;;;;;;28.52;16.48;;;;;;;6.44;51.44;94103.66;5010344;28;20209;-61
2022/02/02 04:10:58;;;;;;;33.35;17.80;;;;;;;7.07;50.17;94098.34;5010153;28;20201;-61
2022/02/02 04:14:19;;;;;;;31.30;17.40;;;;;;;7.09;50.08;94103.31;5010144;28;20626;-61
2022/02/02 04:55:50;;;;;;;39.25;19.77;;;;;;;5.68;52.34;94117.75;5008883;28;20193;-62
2022/02/02 04:58:05;;;;;;;35.25;17.98;;;;;;;5.57;52.90;94125.66;5012374;28;20206;-62
2022/02/02 05:08:57;;;;;;;36.22;18.60;;;;;;;6.98;49.53;94117.31;5011818;28;20210;-62
2022/02/02 05:17:16;;;;;;;33.78;18.83;;;;;;;5.59;52.36;94131.41;5010301;28;20186;-64
2022/02/02 05:44:58;;;;;;;37.38;20.85;;;;;;;6.17;51.30;94146.34;5009308;28;20208;-62
2022/02/02 05:52:22;;;;;;;37.33;20.85;;;;;;;6.16;51.94;94150.78;5008348;28;20205;-62
2022/02/02 05:54:49;;;;;;;37.88;20.45;;;;;;;6.30;51.84;94146.72;5008735;28;20205;-62
2022/02/02 05:57:18;;;;;;;38.50;21.33;;;;;;;6.57;50.91;94157.13;5009287;28;20228;-65
2022/02/02 05:59:45;;;;;;;40.65;22.60;;;;;;;6.41;51.01;94158.00;5009446;28;20210;-62
2022/02/02 06:02:14;;;;;;;40.42;21.48;;;;;;;6.30;52.09;94158.94;5005105;28;20232;-63
2022/02/02 06:04:46;;;;;;;48.17;27.50;;;;;;;6.30;52.35;94164.94;5002152;28;20206;-63
2022/02/02 06:07:14;;;;;;;63.78;37.58;;;;;;;6.99;51.23;94161.31;5012318;28;20232;-63
2022/02/02 06:09:45;;;;;;;42.88;23.33;;;;;;;6.59;51.38;94163.63;5002265;28;20681;-62
2022/02/02 06:12:16;;;;;;;42.13;21.90;;;;;;;6.17;51.52;94173.13;5002424;28;20204;-62
2022/02/02 06:14:44;;;;;;;39.85;21.30;;;;;;;6.42;51.59;94160.38;5000800;28;20673;-62
2022/02/02 06:17:11;;;;;;;40.33;21.73;;;;;;;6.74;51.00;94184.59;4998153;28;20254;-62
2022/02/02 06:19:38;;;;;;;40.13;22.27;;;;;;;6.26;51.52;94196.91;4987491;28;21181;-63
2022/02/02 06:22:14;;;;;;;38.00;21.50;;;;;;;6.52;51.17;94186.47;4990518;28;20264;-64
2022/02/02 06:24:56;;;;;;;36.33;21.33;;;;;;;5.88;52.66;94197.78;4990341;28;20201;-62
2022/02/02 06:27:26;;;;;;;37.28;20.35;;;;;;;5.68;53.46;94205.31;5002881;28;20202;-63
2022/02/02 06:30:04;;;;;;;35.55;19.20;;;;;;;5.99;53.69;94191.66;5006815;28;20253;-61
2022/02/02 06:32:36;;;;;;;40.45;23.10;;;;;;;6.53;51.47;94193.25;5007052;28;20182;-62
2022/02/02 06:35:05;;;;;;;37.92;20.88;;;;;;;6.41;51.16;94190.03;5006121;28;20184;-61
2022/02/02 06:37:32;;;;;;;39.38;21.23;;;;;;;5.96;52.83;94207.78;5007346;28;20199;-60
2022/02/02 06:39:59;;;;;;;36.00;20.10;;;;;;;6.06;51.90;94180.06;5007637;28;20202;-59
2022/02/02 06:42:27;;;;;;;37.28;19.38;;;;;;;6.05;52.70;94206.31;5008378;28;20233;-61
2022/02/02 06:44:55;;;;;;;38.15;22.48;;;;;;;6.42;51.48;94183.00;5008506;28;20205;-62
2022/02/02 06:47:24;;;;;;;38.60;21.92;;;;;;;6.32;52.19;94212.31;5009191;28;20186;-61
2022/02/02 06:49:51;;;;;;;44.42;22.45;;;;;;;6.45;51.28;94196.31;5008792;28;20768;-60
2022/02/02 06:52:25;;;;;;;42.60;21.92;;;;;;;5.92;53.00;94209.28;5009226;28;20213;-61
2022/02/02 06:55:18;;;;;;;39.85;22.48;;;;;;;6.23;52.59;94203.38;5012727;28;20198;-60
2022/02/02 06:58:11;;;;;;;41.00;20.17;;;;;;;5.96;52.76;94194.78;5012563;28;20209;-61
2022/02/02 07:01:11;;;;;;;39.00;21.02;;;;;;;6.53;51.90;94198.44;5012522;28;20241;-61
2022/02/02 07:04:10;;;;;;;40.67;22.73;;;;;;;6.01;52.91;94205.22;5011821;28;20249;-62
2022/02/02 07:07:00;;;;;;;42.03;23.00;;;;;;;5.83;52.42;94208.13;5012759;28;20206;-61
2022/02/02 07:09:53;;;;;;;42.20;22.67;;;;;;;5.86;53.02;94220.63;5011796;28;20289;-61
2022/02/02 07:12:37;;;;;;;41.08;22.13;;;;;;;5.68;53.64;94220.91;5012283;28;20201;-61
2022/02/02 07:23:43;;;;;;;46.20;21.20;;;;;;;6.01;52.32;94220.81;5017981;28;20226;-58
2022/02/02 07:31:37;;;;;;;42.15;23.25;;;;;;;6.10;51.84;94196.75;5011891;28;20210;-59
2022/02/02 07:34:28;;;;;;;38.28;19.40;;;;;;;6.01;52.26;94215.63;5011739;28;20197;-60
2022/02/02 07:36:58;;;;;;;39.97;22.05;;;;;;;6.54;50.67;94220.84;5013132;28;20212;-61
2022/02/02 07:39:26;;;;;;;44.28;22.58;;;;;;;5.84;52.99;94220.09;5011982;28;20194;-61
2022/02/02 07:42:02;;;;;;;46.10;23.02;;;;;;;5.90;52.28;94217.31;5011829;28;20197;-59
2022/02/02 07:44:35;;;;;;;37.45;20.20;;;;;;;6.50;51.39;94213.78;5010504;28;20584;-64
2022/02/02 07:47:07;;;;;;;37.60;19.48;;;;;;;6.02;51.35;94219.81;5011713;28;20690;-60
2022/02/02 07:49:38;;;;;;;41.00;22.92;;;;;;;6.19;52.54;94223.09;5011014;28;20206;-60
2022/02/02 07:52:08;;;;;;;36.60;21.70;;;;;;;6.67;50.90;94210.03;5011762;28;20198;-61
2022/02/02 07:54:39;;;;;;;39.28;19.38;;;;;;;6.29;51.04;94218.00;5011082;28;20198;-62
2022/02/02 07:57:27;;;;;;;40.30;20.75;;;;;;;6.63;49.73;94206.34;5011266;28;20198;-61
2022/02/02 08:00:01;;;;;;;41.22;21.02;;;;;;;6.04;50.72;94196.91;5011147;28;20205;-57
2022/02/02 08:05:05;;;;;;;33.60;19.20;;;;;;;6.43;49.94;94210.59;5009876;28;20218;-61
2022/02/02 08:07:39;;;;;;;28.63;14.68;;;;;;;5.43;51.32;94210.19;5011436;28;20212;-63
2022/02/02 08:10:12;;;;;;;37.65;18.80;;;;;;;6.13;50.54;94204.06;5010975;28;20204;-60
2022/02/02 08:12:47;;;;;;;35.55;19.25;;;;;;;6.67;49.54;94194.44;5011323;28;20700;-60
2022/02/02 08:15:17;;;;;;;30.45;17.20;;;;;;;5.97;50.23;94196.31;5011331;28;20281;-62
2022/02/02 08:17:44;;;;;;;34.58;18.58;;;;;;;6.74;48.71;94192.41;5010874;28;20272;-62
2022/02/02 08:20:12;;;;;;;33.55;17.83;;;;;;;6.59;48.46;94197.47;5010834;28;20187;-62
2022/02/02 08:22:40;;;;;;;38.17;18.20;;;;;;;6.83;48.13;94183.09;5011095;28;20306;-60
2022/02/02 08:25:09;;;;;;;31.02;16.65;;;;;;;6.55;47.99;94196.38;5010473;28;20315;-60
2022/02/02 08:27:39;;;;;;;36.17;17.80;;;;;;;7.41;46.24;94194.44;5010838;28;20208;-61
2022/02/02 08:30:11;;;;;;;38.28;17.92;;;;;;;7.18;46.75;94198.97;5010131;28;20190;-60
2022/02/02 08:32:57;;;;;;;36.60;21.02;;;;;;;7.65;46.53;94200.78;5010954;28;20206;-61
2022/02/02 08:35:27;;;;;;;49.17;24.02;;;;;;;7.87;45.09;94206.63;5010928;28;20197;-61
2022/02/02 08:38:06;;;;;;;29.27;16.27;;;;;;;8.03;44.15;94208.25;5010951;28;20191;-60
2022/02/02 08:41:00;;;;;;;30.65;15.60;;;;;;;7.82;43.94;94204.00;5010920;28;20209;-61
2022/02/02 08:45:50;;;;;;;33.05;16.70;;;;;;;8.34;44.07;94204.72;5010717;28;20209;-61
2022/02/02 08:48:24;;;;;;;28.45;15.77;;;;;;;7.83;44.19;94198.53;5010369;28;20202;-61
2022/02/02 08:50:59;;;;;;;34.85;15.40;;;;;;;7.83;42.96;94202.94;5011075;28;20248;-61
2022/02/02 08:58:47;;;;;;;31.45;16.65;;;;;;;7.86;43.31;94202.47;5010029;28;20210;-63
2022/02/02 09:01:21;;;;;;;29.25;16.20;;;;;;;7.94;43.63;94199.34;5010370;28;20268;-61
2022/02/02 09:06:34;;;;;;;32.13;16.33;;;;;;;8.09;44.09;94184.53;5010946;28;20200;-62
2022/02/02 09:09:51;;;;;;;36.00;16.60;;;;;;;8.11;43.54;94194.72;5010069;28;20605;-60
2022/02/02 09:25:22;;;;;;;26.83;15.27;;;;;;;7.14;44.01;94195.31;5009787;28;20202;-60
2022/02/02 09:36:22;;;;;;;28.27;15.00;;;;;;;8.96;40.49;94194.84;5009736;28;20688;-60
2022/02/02 09:38:51;;;;;;;33.40;17.17;;;;;;;9.55;40.03;94202.09;5009266;28;20293;-60
2022/02/02 09:44:13;;;;;;;26.08;14.52;;;;;;;8.51;40.84;94199.28;5009547;28;20257;-61
2022/02/02 09:49:34;;;;;;;28.35;13.75;;;;;;;8.51;40.57;94194.84;5009172;28;20811;-60
2022/02/02 09:52:11;;;;;;;28.60;13.55;;;;;;;8.24;40.87;94194.25;5009905;28;20289;-61
2022/02/02 09:54:58;;;;;;;28.20;14.40;;;;;;;8.72;39.81;94185.22;5009109;28;20207;-62
2022/02/02 10:05:47;;;;;;;26.00;14.35;;;;;;;8.58;40.00;94158.81;5009932;28;20218;-61
2022/02/02 10:09:15;;;;;;;25.33;12.82;;;;;;;8.21;40.80;94166.81;5011477;28;20233;-62
2022/02/02 10:14:37;;;;;;;28.63;13.95;;;;;;;7.76;40.34;94171.09;5009290;28;20194;-63
2022/02/02 10:16:56;;;;;;;28.33;14.25;;;;;;;8.32;39.44;94169.50;5009908;28;20242;-65
2022/02/02 10:19:32;;;;;;;23.42;13.35;;;;;;;7.24;41.31;94172.94;5009326;28;20677;-63
2022/02/02 10:21:59;;;;;;;25.83;14.10;;;;;;;7.32;41.52;94180.31;5009075;28;20680;-62
2022/02/02 10:24:44;;;;;;;25.35;14.52;;;;;;;6.99;41.81;94171.75;5009518;28;20213;-64
2022/02/02 10:27:24;;;;;;;33.00;13.45;;;;;;;6.74;43.20;94174.19;5009417;28;20248;-63
2022/02/02 10:30:12;;;;;;;28.77;14.52;;;;;;;7.37;41.86;94180.31;5012080;28;20198;-61
2022/02/02 10:32:42;;;;;;;31.58;15.05;;;;;;;7.52;40.88;94180.41;5012770;28;20585;-61
2022/02/02 10:35:26;;;;;;;30.38;15.70;;;;;;;7.72;41.20;94183.88;5013346;28;20273;-61
2022/02/02 10:38:16;;;;;;;32.08;15.10;;;;;;;7.62;40.85;94167.41;5013918;28;20288;-61
2022/02/02 10:41:08;;;;;;;29.77;15.90;;;;;;;7.91;40.63;94181.59;5013305;28;20204;-64
2022/02/02 10:43:40;;;;;;;31.45;15.70;;;;;;;7.92;40.93;94176.13;5013020;28;20229;-63
2022/02/02 10:46:26;;;;;;;34.67;15.13;;;;;;;8.33;40.76;94178.88;5013499;28;20236;-63
2022/02/02 10:49:06;;;;;;;29.98;16.13;;;;;;;8.25;41.14;94174.94;5012688;28;20582;-62
2022/02/02 10:51:42;;;;;;;28.42;15.05;;;;;;;8.51;40.43;94166.13;5013022;28;20205;-62
2022/02/02 10:57:01;;;;;;;31.67;14.35;;;;;;;8.19;39.74;94161.06;5012011;28;20632;-62
2022/02/02 11:07:25;;;;;;;28.17;13.77;;;;;;;7.89;39.86;94168.81;5012578;28;20296;-61
2022/02/02 11:09:54;;;;;;;24.83;12.27;;;;;;;7.78;39.57;94164.63;5012021;28;20246;-61
2022/02/02 11:12:27;;;;;;;26.40;13.27;;;;;;;8.44;39.19;94157.75;5012261;28;20202;-61
2022/02/02 11:15:04;;;;;;;30.17;14.98;;;;;;;8.62;39.61;94162.47;5012190;28;20292;-60
2022/02/02 11:17:39;;;;;;;24.33;14.07;;;;;;;8.80;38.89;94167.19;5012027;28;20218;-62
2022/02/02 11:20:07;;;;;;;36.17;14.63;;;;;;;9.41;38.02;94162.66;5012219;28;20201;-62
2022/02/02 11:22:44;;;;;;;26.95;13.65;;;;;;;9.10;38.51;94161.91;5012472;28;20256;-63
2022/02/02 11:25:11;;;;;;;27.10;13.38;;;;;;;8.88;38.54;94164.06;5012354;28;20219;-62
2022/02/02 11:27:41;;;;;;;21.15;10.85;;;;;;;8.59;37.72;94155.16;5011859;28;20202;-61
2022/02/02 11:30:29;;;;;;;23.77;12.68;;;;;;;9.30;38.21;94142.81;5011940;28;20194;-61
2022/02/02 11:33:17;;;;;;;22.40;11.73;;;;;;;8.38;38.72;94150.97;4997396;28;20674;-61
2022/02/02 11:35:56;;;;;;;29.35;13.68;;;;;;;9.68;38.11;94146.63;4992698;28;20203;-62
2022/02/02 11:38:41;;;;;;;25.88;13.77;;;;;;;10.31;37.54;94129.34;4989923;28;20190;-62
2022/02/02 11:43:46;;;;;;;30.85;13.65;;;;;;;10.64;35.59;94118.88;5006718;28;20607;-61
2022/02/02 11:46:54;;;;;;;65.85;17.45;;;;;;;11.06;35.63;94121.66;4999330;28;20624;-62
2022/02/02 11:49:28;;;;;;;26.38;13.95;;;;;;;11.27;36.04;94111.75;5000652;28;20190;-61
2022/02/02 11:52:01;;;;;;;22.90;12.88;;;;;;;10.42;35.20;94110.66;4994230;28;20209;-61
2022/02/02 11:54:31;;;;;;;24.58;13.27;;;;;;;11.60;35.91;94110.09;5003517;28;20630;-61
2022/02/02 11:56:59;;;;;;;24.58;13.75;;;;;;;10.38;35.78;94130.59;5026201;28;20202;-64
2022/02/02 12:00:11;;;;;;;25.80;13.65;;;;;;;10.58;36.42;94114.75;5001747;28;20198;-63
2022/02/02 12:08:54;;;;;;;21.90;13.10;;;;;;;11.98;33.45;94106.50;4999577;28;20209;-62
2022/02/02 12:18:53;;;;;;;28.25;13.70;;;;;;;12.43;33.43;94097.97;4992290;28;20588;-62
2022/02/02 12:46:04;;;;;;;25.23;14.53;;;;;;;16.26;28.01;94085.78;4991367;28;20293;-62
2022/02/02 12:48:17;;;;;;;23.93;13.73;;;;;;;16.63;26.64;94090.50;4990895;28;20454;-62
2022/02/02 12:59:36;;;;;;;20.00;12.07;;;;;;;14.59;28.32;94107.09;4990752;28;20438;-60
2022/02/02 13:02:05;;;;;;;24.13;13.20;;;;;;;15.10;28.62;94101.38;4990711;28;20299;-62
2022/02/02 13:04:33;;;;;;;24.07;12.97;;;;;;;14.45;29.17;94098.41;4990332;28;20890;-62
2022/02/02 13:07:30;;;;;;;23.57;13.43;;;;;;;16.48;27.18;94088.31;4990547;28;20450;-61
2022/02/02 13:09:59;;;;;;;20.67;13.10;;;;;;;15.89;26.87;94091.63;4990110;28;20548;-61
2022/02/02 13:12:39;;;;;;;26.30;14.37;;;;;;;15.27;27.53;94100.69;4990645;28;20987;-61
2022/02/02 13:15:28;;;;;;;22.77;13.13;;;;;;;14.42;28.90;94096.38;4990280;28;20472;-62
2022/02/02 13:21:06;;;;;;;23.03;12.70;;;;;;;16.20;26.75;94092.31;4990270;28;20445;-63
2022/02/02 13:32:43;;;;;;;20.50;12.90;;;;;;;17.33;26.47;94068.13;4993968;28;21008;-67
2022/02/02 13:35:25;;;;;;;21.27;13.13;;;;;;;18.19;25.09;94074.59;4989664;28;20973;-61
2022/02/02 13:38:46;;;;;;;19.87;12.80;;;;;;;17.90;24.90;94075.34;4990097;28;20458;-60
2022/02/02 13:44:03;;;;;;;19.87;11.13;;;;;;;15.36;26.15;94080.38;4989570;28;20469;-59
2022/02/02 13:53:06;;;;;;;20.47;11.80;;;;;;;13.63;28.98;94095.13;4998445;28;20481;-59
2022/02/02 13:56:04;;;;;;;23.80;12.17;;;;;;;14.62;27.81;94085.38;4989842;28;21083;-60
2022/02/02 14:01:12;;;;;;;22.77;13.07;;;;;;;16.58;26.70;94072.16;4989821;28;20454;-62
2022/02/02 14:06:40;;;;;;;22.30;13.90;;;;;;;16.94;26.32;94083.16;4993869;28;20481;-61
2022/02/02 14:33:52;;;;;;;21.40;12.15;;;;;;;10.94;32.95;94102.91;4992656;28;20662;-61
2022/02/02 14:36:23;;;;;;;22.50;11.95;;;;;;;11.35;32.95;94105.88;4993512;28;20202;-61
2022/02/02 14:39:10;;;;;;;20.42;11.60;;;;;;;11.24;32.56;94113.06;4993057;28;20195;-62
2022/02/02 14:47:15;;;;;;;26.27;12.50;;;;;;;11.05;33.38;94108.81;4994356;28;20206;-61
2022/02/02 14:52:28;;;;;;;40.90;27.20;;;;;;;10.90;33.99;94101.88;4993504;28;20262;-62
2022/02/02 15:27:53;;;;;;;20.15;12.15;;;;;;;10.76;34.23;94116.69;4992459;28;20210;-62
2022/02/02 15:30:27;;;;;;;21.58;12.32;;;;;;;10.22;35.42;94126.50;4992211;28;20206;-61
2022/02/02 15:32:57;;;;;;;21.83;12.45;;;;;;;10.33;35.40;94117.53;4992651;28;20198;-64
2022/02/02 15:35:25;;;;;;;19.80;12.48;;;;;;;9.93;36.05;94125.56;4993684;28;20302;-63
2022/02/02 15:40:31;;;;;;;20.55;13.02;;;;;;;10.32;35.62;94126.44;4992159;28;20195;-65
2022/02/02 15:57:42;;;;;;;63.53;36.05;;;;;;;9.71;37.34;94151.31;5001455;28;20711;-63
2022/02/02 16:04:35;;;;;;;22.88;13.18;;;;;;;10.12;35.23;94150.13;5010512;28;20242;-63
2022/02/02 16:07:05;;;;;;;23.60;13.25;;;;;;;9.56;36.50;94159.22;5011629;28;20209;-62
2022/02/02 16:09:53;;;;;;;21.08;12.63;;;;;;;10.01;34.92;94169.50;5011107;28;20221;-64
2022/02/02 16:15:16;;;;;;;18.23;11.07;;;;;;;9.28;36.21;94168.44;5010381;28;20220;-62
2022/02/02 16:18:03;;;;;;;25.13;12.77;;;;;;;9.66;35.54;94144.28;4998321;28;20234;-62
2022/02/02 16:39:14;;;;;;;18.10;10.82;;;;;;;9.61;36.00;94203.66;4990490;28;20206;-60
2022/02/02 16:44:26;;;;;;;23.00;12.57;;;;;;;8.93;36.42;94198.00;4989667;28;20202;-62
2022/02/02 16:46:54;;;;;;;19.52;11.32;;;;;;;9.31;35.72;94198.47;4990954;28;20210;-61
2022/02/02 16:49:21;;;;;;;20.30;11.32;;;;;;;9.18;36.41;94189.34;4991247;28;20202;-60
2022/02/02 16:51:48;;;;;;;20.23;10.82;;;;;;;8.34;37.74;94189.06;4991269;28;20202;-62
2022/02/02 16:54:30;;;;;;;18.65;10.85;;;;;;;8.79;36.35;94186.53;4990579;28;20857;-62
2022/02/02 17:35:56;;;;;;;16.85;8.80;;;;;;;7.92;37.78;94219.69;4989409;28;20226;-61
2022/02/02 17:37:56;;;;;;;97.30;55.08;;;;;;;8.50;39.08;94226.44;4990471;28;20205;-62
2022/02/02 17:43:08;;;;;;;14.07;7.43;;;;;;;7.80;38.56;94226.94;4999274;28;20688;-60
2022/02/02 18:21:14;;;;;;;14.80;8.25;;;;;;;9.00;36.72;94269.06;4991002;28;20217;-60
2022/02/02 18:27:17;;;;;;;18.85;8.77;;;;;;;9.15;36.15;94271.69;4988683;28;20744;-63
2022/02/02 18:31:56;;;;;;;53.35;26.20;;;;;;;8.07;39.27;94272.72;4992294;28;20204;-63
2022/02/02 18:34:43;;;;;;;179.63;83.95;;;;;;;8.39;38.31;94275.22;4998707;28;20203;-63
2022/02/02 18:58:57;;;;;;;19.90;9.30;;;;;;;8.47;38.18;94303.44;4994054;28;20247;-73
2022/02/02 19:31:42;;;;;;;17.20;9.23;;;;;;;8.27;40.26;94302.56;4984843;28;20218;-80
2022/02/02 20:06:42;;;;;;;11.43;6.63;;;;;;;7.95;42.24;94358.25;4992746;28;20301;-79
2022/02/02 20:11:42;;;;;;;10.45;6.28;;;;;;;7.90;42.39;94354.81;4973788;28;20654;-78
2022/02/02 20:14:11;;;;;;;11.57;6.30;;;;;;;7.50;42.18;94297.19;4972636;28;20199;-75
2022/02/02 20:16:38;;;;;;;11.50;6.70;;;;;;;7.59;42.95;94363.44;5003016;28;20402;-80
2022/02/02 20:19:08;;;;;;;12.43;6.90;;;;;;;8.03;42.52;94360.34;4990984;28;20201;-76
2022/02/02 20:21:45;;;;;;;9.95;7.00;;;;;;;7.90;42.73;94365.25;4991539;28;20193;-78
2022/02/02 20:24:12;;;;;;;13.13;6.28;;;;;;;7.04;43.68;94345.53;5008015;28;20289;-79
2022/02/02 20:26:46;;;;;;;11.95;6.63;;;;;;;7.05;43.84;94340.06;5008328;28;20757;-78
2022/02/02 20:29:14;;;;;;;11.13;6.88;;;;;;;7.81;42.63;94351.09;4992201;28;20289;-80
2022/02/02 20:31:42;;;;;;;10.15;6.93;;;;;;;7.83;42.60;94367.25;4991978;28;20197;-77
2022/02/02 20:34:11;;;;;;;12.45;6.93;;;;;;;7.25;44.36;94372.53;4993003;28;20205;-82
2022/02/02 20:36:39;;;;;;;12.43;7.05;;;;;;;6.50;44.89;94360.31;5008469;28;20352;-77
2022/02/02 20:39:22;;;;;;;15.70;8.98;;;;;;;6.91;45.33;94375.34;4992127;28;20199;-79
2022/02/02 20:41:49;;;;;;;13.52;7.20;;;;;;;7.09;44.12;94367.19;4991587;28;20285;-77
2022/02/02 20:44:23;;;;;;;16.80;8.32;;;;;;;6.81;44.84;94348.41;4991629;28;20700;-78
2022/02/02 21:00:33;;;;;;;11.60;7.43;;;;;;;7.42;43.17;94347.94;4992313;28;20216;-78
2022/02/02 21:03:30;;;;;;;13.75;7.55;;;;;;;6.08;46.27;94346.25;4987188;28;20304;-75
2022/02/02 21:09:05;;;;;;;13.50;7.68;;;;;;;6.95;44.70;94352.97;4991573;28;20210;-78
2022/02/02 21:14:14;;;;;;;12.00;6.97;;;;;;;6.91;44.50;94351.91;4992299;28;20230;-79
2022/02/02 21:16:44;;;;;;;11.30;7.05;;;;;;;6.18;45.93;94356.78;4991578;28;20675;-81
2022/02/02 21:19:22;;;;;;;11.43;6.82;;;;;;;6.74;45.30;94368.63;5007441;28;20713;-81
2022/02/02 21:21:54;;;;;;;12.10;7.05;;;;;;;6.93;45.13;94365.44;4993226;28;20206;-78
2022/02/02 21:29:26;;;;;;;11.73;6.60;;;;;;;6.95;45.17;94373.81;4991147;28;20244;-76
2022/02/02 21:31:53;;;;;;;11.68;6.55;;;;;;;6.69;45.17;94369.38;5005242;28;20211;-79
2022/02/02 21:34:21;;;;;;;11.55;7.22;;;;;;;7.08;44.16;94323.13;4991026;28;20581;-70
2022/02/02 21:36:48;;;;;;;31.30;19.83;;;;;;;7.25;45.58;94362.09;4990846;28;20686;-75
2022/02/02 21:39:23;;;;;;;69.00;37.33;;;;;;;6.74;45.71;94351.22;4990266;28;20778;-74
2022/02/02 21:41:52;;;;;;;14.68;9.75;;;;;;;6.60;47.29;94375.25;4990538;28;20206;-72
2022/02/02 21:44:20;;;;;;;13.43;7.35;;;;;;;6.05;46.85;94367.53;4990388;28;20651;-81
2022/02/02 21:46:53;;;;;;;12.15;6.90;;;;;;;6.27;46.56;94368.34;5017870;28;20206;-85
2022/02/02 21:49:25;;;;;;;11.40;6.95;;;;;;;6.89;44.89;94316.72;5034125;28;20200;-82
2022/02/02 21:54:28;;;;;;;11.60;7.03;;;;;;;6.63;44.97;94359.94;4994088;28;20229;-79
2022/02/02 21:57:02;;;;;;;12.77;6.72;;;;;;;6.81;45.02;94390.06;4998527;28;20224;-78
2022/02/02 21:59:31;;;;;;;13.65;7.63;;;;;;;6.63;44.89;94391.19;5006570;28;20213;-78
2022/02/02 22:02:01;;;;;;;12.18;7.03;;;;;;;6.81;44.82;94393.47;5009467;28;20190;-80
2022/02/02 22:04:28;;;;;;;13.02;7.65;;;;;;;7.04;44.39;94390.56;5023017;28;20230;-80
2022/02/02 22:06:54;;;;;;;13.35;7.68;;;;;;;6.67;45.08;94396.69;5028182;28;20225;-84
2022/02/02 22:09:22;;;;;;;14.40;8.02;;;;;;;7.07;44.40;94379.69;5020226;28;20203;-79
2022/02/02 22:11:50;;;;;;;11.60;7.40;;;;;;;6.66;45.26;94375.06;4996606;28;20749;-77
2022/02/02 22:14:20;;;;;;;12.75;7.10;;;;;;;6.96;44.90;94396.22;4999774;28;20205;-74
2022/02/02 22:16:49;;;;;;;12.68;7.07;;;;;;;6.87;44.58;94361.25;4992448;28;20190;-81
2022/02/02 22:19:16;;;;;;;11.70;7.40;;;;;;;7.22;43.94;94378.25;4991831;28;20253;-83
2022/02/02 22:21:45;;;;;;;13.48;7.20;;;;;;;7.60;43.63;94393.69;4997270;28;20200;-79
2022/02/02 22:24:17;;;;;;;10.82;7.05;;;;;;;7.60;43.37;94389.28;4992117;28;20285;-81
2022/02/02 22:26:45;;;;;;;13.35;8.25;;;;;;;7.65;42.97;94394.50;4996897;28;20230;-83
2022/02/02 22:29:13;;;;;;;9.90;6.60;;;;;;;7.44;43.45;94381.56;5009885;28;20293;-84
2022/02/02 22:31:41;;;;;;;12.50;7.72;;;;;;;7.45;43.52;94393.56;4995591;28;20203;-74
2022/02/02 22:34:09;;;;;;;12.70;7.82;;;;;;;7.80;43.29;94396.44;4992612;28;20615;-79
2022/02/02 22:36:36;;;;;;;12.20;7.28;;;;;;;7.22;44.22;94411.06;4993815;28;20673;-78
2022/02/02 22:39:04;;;;;;;14.82;8.95;;;;;;;7.52;43.89;94407.19;4993753;28;20207;-77
2022/02/02 22:41:30;;;;;;;14.48;8.35;;;;;;;7.79;43.68;94407.94;4992241;28;20574;-76
2022/02/02 22:43:59;;;;;;;12.73;8.23;;;;;;;7.30;44.66;94406.47;4992480;28;20202;-76
2022/02/02 22:46:28;;;;;;;12.38;8.00;;;;;;;7.56;44.55;94382.97;5002061;28;20321;-76
2022/02/02 22:48:55;;;;;;;12.73;7.75;;;;;;;7.11;45.11;94388.59;5028785;28;20297;-83
2022/02/02 22:51:22;;;;;;;11.57;7.30;;;;;;;7.37;44.72;94407.06;5013885;28;20229;-79
2022/02/02 22:53:59;;;;;;;17.25;8.60;;;;;;;7.59;44.77;94408.53;5013551;28;20251;-77
2022/02/02 22:56:30;;;;;;;11.98;7.38;;;;;;;7.16;45.24;94408.66;5015469;28;20711;-74
2022/02/02 22:58:58;;;;;;;10.80;7.60;;;;;;;7.57;44.52;94407.22;4996523;28;20252;-79
2022/02/02 23:01:28;;;;;;;11.88;7.55;;;;;;;7.79;44.20;94394.91;5011238;28;20294;-76
2022/02/02 23:03:56;;;;;;;10.70;6.88;;;;;;;7.70;44.51;94386.72;5010539;28;20222;-83
2022/02/02 23:06:24;;;;;;;11.55;7.57;;;;;;;7.61;45.17;94382.25;5011699;28;20228;-78
2022/02/02 23:08:52;;;;;;;12.63;7.65;;;;;;;8.36;43.83;94408.09;5010086;28;20195;-77